Time,TemperatureF,DewpointF,PressureIn,WindDirection,WindDirectionDegrees,WindSpeedMPH,WindSpeedGustMPH,Humidity,HourlyPrecipIn,Conditions,Clouds,dailyrainin,SolarRadiationWatts/m^2,SoftwareType,DateUTC
2013-07-09 00:02:00,69.0,44.0,-100.00,North,4,7.0,11.0,41,0.00,,,-99.99,0.000000,,2013-07-09 07:02:00,
2013-07-09 00:11:00,69.0,44.0,-100.00,North,4,7.0,11.0,41,0.00,,,-99.99,0.000000,,2013-07-09 07:11:00,
2013-07-09 00:22:00,69.0,44.0,-100.00,North,4,7.0,11.0,41,0.00,,,-99.99,0.000000,,2013-07-09 07:22:00,
2013-07-09 00:33:00,69.0,44.0,-100.00,North,4,7.0,11.0,41,0.00,,,-99.99,0.000000,,2013-07-09 07:33:00,
2013-07-09 01:01:00,69.0,43.0,-100.00,WNW,295,3.0,9.0,39,0.00,,,0.03,0.000000,,2013-07-09 08:01:00,
2013-07-09 01:11:00,69.0,43.0,-100.00,WNW,295,3.0,9.0,39,0.00,,,0.03,0.000000,,2013-07-09 08:11:00,
2013-07-09 01:22:00,69.0,43.0,-100.00,WNW,295,3.0,9.0,39,0.00,,,0.03,0.000000,,2013-07-09 08:22:00,
2013-07-09 01:33:00,69.0,43.0,-100.00,WNW,295,3.0,9.0,39,0.00,,,0.03,0.000000,,2013-07-09 08:33:00,
2013-07-09 02:02:00,69.0,45.0,-100.00,NNE,17,5.0,11.0,42,0.00,,,0.03,0.000000,,2013-07-09 09:02:00,
2013-07-09 02:11:00,69.0,45.0,-100.00,NNE,17,5.0,11.0,42,0.00,,,0.03,0.000000,,2013-07-09 09:11:00,
2013-07-09 02:22:00,69.0,45.0,-100.00,NNE,17,5.0,11.0,42,0.00,,,0.03,0.000000,,2013-07-09 09:22:00,
2013-07-09 02:34:00,69.0,45.0,-100.00,NNE,17,5.0,11.0,42,0.00,,,0.03,0.000000,,2013-07-09 09:34:00,
2013-07-09 03:01:00,59.0,56.0,-100.00,WSW,253,4.0,10.0,91,0.04,,,0.07,0.000000,,2013-07-09 10:01:00,
2013-07-09 03:11:00,59.0,56.0,-100.00,WSW,253,4.0,10.0,91,0.04,,,0.07,0.000000,,2013-07-09 10:11:00,
2013-07-09 03:22:00,59.0,56.0,-100.00,WSW,253,4.0,10.0,91,0.04,,,0.07,0.000000,,2013-07-09 10:22:00,
2013-07-09 03:33:00,59.0,56.0,-100.00,WSW,253,4.0,10.0,91,0.04,,,0.07,0.000000,,2013-07-09 10:33:00,
2013-07-09 04:01:00,58.0,56.0,-100.00,NW,304,3.0,7.0,92,0.05,,,0.12,0.000000,,2013-07-09 11:01:00,
2013-07-09 04:11:00,58.0,56.0,-100.00,NW,304,3.0,7.0,92,0.05,,,0.12,0.000000,,2013-07-09 11:11:00,
2013-07-09 04:22:00,58.0,56.0,-100.00,NW,304,3.0,7.0,92,0.05,,,0.12,0.000000,,2013-07-09 11:22:00,
2013-07-09 04:33:00,58.0,56.0,-100.00,NW,304,3.0,7.0,92,0.05,,,0.12,0.000000,,2013-07-09 11:33:00,
2013-07-09 05:02:00,57.0,52.0,-100.00,NNE,19,11.0,16.0,82,0.09,,,0.21,0.000000,,2013-07-09 12:02:00,
2013-07-09 05:11:00,57.0,52.0,-100.00,NNE,19,11.0,16.0,82,0.09,,,0.21,0.000000,,2013-07-09 12:11:00,
2013-07-09 05:22:00,57.0,52.0,-100.00,NNE,19,11.0,16.0,82,0.09,,,0.21,0.000000,,2013-07-09 12:22:00,
2013-07-09 05:33:00,57.0,52.0,-100.00,NNE,19,11.0,16.0,82,0.09,,,0.21,0.000000,,2013-07-09 12:33:00,
2013-07-09 06:11:00,58.0,52.0,-100.00,North,353,8.0,15.0,79,0.11,,,0.32,1.000000,,2013-07-09 13:11:00,
2013-07-09 06:21:00,58.0,52.0,-100.00,North,353,8.0,15.0,79,0.11,,,0.32,1.000000,,2013-07-09 13:21:00,
2013-07-09 06:33:00,58.0,52.0,-100.00,North,353,8.0,15.0,79,0.11,,,0.32,1.000000,,2013-07-09 13:33:00,
2013-07-09 07:01:00,61.0,53.0,-100.00,NNE,31,11.0,16.0,75,0.00,,,0.32,27.000000,,2013-07-09 14:01:00,
2013-07-09 07:11:00,61.0,53.0,-100.00,NNE,31,11.0,16.0,75,0.00,,,0.32,27.000000,,2013-07-09 14:11:00,
2013-07-09 07:22:00,61.0,53.0,-100.00,NNE,31,11.0,16.0,75,0.00,,,0.32,27.000000,,2013-07-09 14:22:00,
2013-07-09 07:34:00,61.0,53.0,-100.00,NNE,31,11.0,16.0,75,0.00,,,0.32,27.000000,,2013-07-09 14:34:00,
2013-07-09 08:01:00,64.0,49.0,-100.00,North,355,10.0,15.0,59,0.00,,,0.32,81.000000,,2013-07-09 15:01:00,
2013-07-09 08:11:00,64.0,49.0,-100.00,North,355,10.0,15.0,59,0.00,,,0.32,81.000000,,2013-07-09 15:11:00,
2013-07-09 08:22:00,64.0,49.0,-100.00,North,355,10.0,15.0,59,0.00,,,0.32,81.000000,,2013-07-09 15:22:00,
2013-07-09 08:33:00,64.0,49.0,-100.00,North,355,10.0,15.0,59,0.00,,,0.32,81.000000,,2013-07-09 15:33:00,
2013-07-09 09:02:00,65.0,48.0,-100.00,North,8,11.0,17.0,54,0.00,,,0.32,150.000000,,2013-07-09 16:02:00,
2013-07-09 09:11:00,65.0,48.0,-100.00,North,8,11.0,17.0,54,0.00,,,0.32,150.000000,,2013-07-09 16:11:00,
2013-07-09 09:22:00,65.0,48.0,-100.00,North,8,11.0,17.0,54,0.00,,,0.32,150.000000,,2013-07-09 16:22:00,
2013-07-09 09:33:00,65.0,48.0,-100.00,North,8,11.0,17.0,54,0.00,,,0.32,150.000000,,2013-07-09 16:33:00,
2013-07-09 10:02:00,68.0,52.0,-100.00,North,3,12.0,19.0,56,0.00,,,0.32,410.000000,,2013-07-09 17:02:00,
2013-07-09 10:11:00,68.0,52.0,-100.00,North,3,12.0,19.0,56,0.00,,,0.32,410.000000,,2013-07-09 17:11:00,
2013-07-09 10:22:00,68.0,52.0,-100.00,North,3,12.0,19.0,56,0.00,,,0.32,410.000000,,2013-07-09 17:22:00,
2013-07-09 10:35:00,68.0,52.0,-100.00,North,3,12.0,19.0,56,0.00,,,0.32,410.000000,,2013-07-09 17:35:00,
2013-07-09 11:01:00,69.0,58.0,-100.00,SSE,155,5.0,18.0,68,0.00,,,0.32,519.000000,,2013-07-09 18:01:00,
2013-07-09 11:11:00,69.0,58.0,-100.00,SSE,155,5.0,18.0,68,0.00,,,0.32,519.000000,,2013-07-09 18:11:00,
2013-07-09 11:22:00,69.0,58.0,-100.00,SSE,155,5.0,18.0,68,0.00,,,0.32,519.000000,,2013-07-09 18:22:00,
2013-07-09 11:32:00,69.0,58.0,-100.00,SSE,155,5.0,18.0,68,0.00,,,0.32,519.000000,,2013-07-09 18:32:00,
2013-07-09 12:01:00,76.0,64.0,-100.00,NE,40,5.0,13.0,67,0.00,,,-99.99,1143.000000,,2013-07-09 19:01:00,
2013-07-09 12:11:00,76.0,64.0,-100.00,NE,40,5.0,13.0,67,0.00,,,-99.99,1143.000000,,2013-07-09 19:11:00,
2013-07-09 12:22:00,76.0,64.0,-100.00,NE,40,5.0,13.0,67,0.00,,,-99.99,1143.000000,,2013-07-09 19:22:00,
2013-07-09 12:33:00,76.0,64.0,-100.00,NE,40,5.0,13.0,67,0.00,,,-99.99,1143.000000,,2013-07-09 19:33:00,
2013-07-09 13:01:00,73.0,62.0,-100.00,West,263,2.0,11.0,68,0.00,,,0.32,721.000000,,2013-07-09 20:01:00,
2013-07-09 13:11:00,73.0,62.0,-100.00,West,263,2.0,11.0,68,0.00,,,0.32,721.000000,,2013-07-09 20:11:00,
2013-07-09 13:21:00,73.0,62.0,-100.00,West,263,2.0,11.0,68,0.00,,,0.32,721.000000,,2013-07-09 20:21:00,
2013-07-09 13:32:00,73.0,62.0,-100.00,West,263,2.0,11.0,68,0.00,,,0.32,721.000000,,2013-07-09 20:32:00,
2013-07-09 14:01:00,77.0,62.0,-100.00,SE,143,2.0,5.0,59,0.00,,,0.32,547.000000,,2013-07-09 21:01:00,
2013-07-09 14:11:00,77.0,62.0,-100.00,SE,143,2.0,5.0,59,0.00,,,0.32,547.000000,,2013-07-09 21:11:00,
2013-07-09 14:22:00,77.0,62.0,-100.00,SE,143,2.0,5.0,59,0.00,,,0.32,547.000000,,2013-07-09 21:22:00,
2013-07-09 14:32:00,77.0,62.0,-100.00,SE,143,2.0,5.0,59,0.00,,,0.32,547.000000,,2013-07-09 21:32:00,
2013-07-09 15:01:00,78.0,63.0,-100.00,SSW,210,2.0,7.0,61,0.00,,,0.32,574.000000,,2013-07-09 22:01:00,
2013-07-09 15:11:00,78.0,63.0,-100.00,SSW,210,2.0,7.0,61,0.00,,,0.32,574.000000,,2013-07-09 22:11:00,
2013-07-09 15:22:00,78.0,63.0,-100.00,SSW,210,2.0,7.0,61,0.00,,,0.32,574.000000,,2013-07-09 22:22:00,
2013-07-09 15:33:00,78.0,63.0,-100.00,SSW,210,2.0,7.0,61,0.00,,,0.32,574.000000,,2013-07-09 22:33:00,
2013-07-09 16:02:00,74.0,61.0,-100.00,SE,141,5.0,9.0,65,0.00,,,0.32,341.000000,,2013-07-09 23:02:00,
2013-07-09 16:11:00,74.0,61.0,-100.00,SE,141,5.0,9.0,65,0.00,,,0.32,341.000000,,2013-07-09 23:11:00,
2013-07-09 16:22:00,74.0,61.0,-100.00,SE,141,5.0,9.0,65,0.00,,,0.32,341.000000,,2013-07-09 23:22:00,
2013-07-09 16:33:00,74.0,61.0,-100.00,SE,141,5.0,9.0,65,0.00,,,0.32,341.000000,,2013-07-09 23:33:00,
2013-07-09 17:01:00,75.0,62.0,-100.00,ENE,72,3.0,9.0,65,0.00,,,-99.99,300.000000,,2013-07-10 00:01:00,
2013-07-09 17:11:00,75.0,62.0,-100.00,ENE,72,3.0,9.0,65,0.00,,,-99.99,300.000000,,2013-07-10 00:11:00,
2013-07-09 17:22:00,75.0,62.0,-100.00,ENE,72,3.0,9.0,65,0.00,,,-99.99,300.000000,,2013-07-10 00:22:00,
2013-07-09 17:33:00,75.0,62.0,-100.00,ENE,72,3.0,9.0,65,0.00,,,-99.99,300.000000,,2013-07-10 00:33:00,
2013-07-09 18:01:00,75.0,57.0,-100.00,NNW,329,7.0,12.0,53,0.00,,,0.31,535.000000,,2013-07-10 01:01:00,
2013-07-09 18:11:00,75.0,57.0,-100.00,NNW,329,7.0,12.0,53,0.00,,,0.31,535.000000,,2013-07-10 01:11:00,
2013-07-09 18:22:00,75.0,57.0,-100.00,NNW,329,7.0,12.0,53,0.00,,,0.31,535.000000,,2013-07-10 01:22:00,
2013-07-09 18:33:00,75.0,57.0,-100.00,NNW,329,7.0,12.0,53,0.00,,,0.31,535.000000,,2013-07-10 01:33:00,
2013-07-09 19:01:00,70.0,56.0,-100.00,NNW,334,10.0,19.0,61,0.00,,,0.30,205.000000,,2013-07-10 02:01:00,
2013-07-09 19:11:00,70.0,56.0,-100.00,NNW,334,10.0,19.0,61,0.00,,,0.30,205.000000,,2013-07-10 02:11:00,
2013-07-09 19:22:00,70.0,56.0,-100.00,NNW,334,10.0,19.0,61,0.00,,,0.30,205.000000,,2013-07-10 02:22:00,
2013-07-09 19:34:00,70.0,56.0,-100.00,NNW,334,10.0,19.0,61,0.00,,,0.30,205.000000,,2013-07-10 02:34:00,
2013-07-09 20:01:00,69.0,53.0,-100.00,NW,323,6.0,18.0,56,0.00,,,0.29,37.000000,,2013-07-10 03:01:00,
2013-07-09 20:11:00,69.0,53.0,-100.00,NW,323,6.0,18.0,56,0.00,,,0.29,37.000000,,2013-07-10 03:11:00,
2013-07-09 20:22:00,69.0,53.0,-100.00,NW,323,6.0,18.0,56,0.00,,,0.29,37.000000,,2013-07-10 03:22:00,
2013-07-09 20:32:00,69.0,53.0,-100.00,NW,323,6.0,18.0,56,0.00,,,0.29,37.000000,,2013-07-10 03:32:00,
2013-07-09 21:01:00,68.0,51.0,-100.00,NNW,332,6.0,14.0,55,0.00,,,0.29,1.000000,,2013-07-10 04:01:00,
2013-07-09 21:11:00,68.0,51.0,-100.00,NNW,332,6.0,14.0,55,0.00,,,0.29,1.000000,,2013-07-10 04:11:00,
2013-07-09 21:22:00,68.0,51.0,-100.00,NNW,332,6.0,14.0,55,0.00,,,0.29,1.000000,,2013-07-10 04:22:00,
2013-07-09 21:32:00,68.0,51.0,-100.00,NNW,332,6.0,14.0,55,0.00,,,0.29,1.000000,,2013-07-10 04:32:00,
2013-07-09 22:02:00,67.0,52.0,-100.00,NNE,13,5.0,15.0,59,0.00,,,0.29,0.000000,,2013-07-10 05:02:00,
2013-07-09 22:11:00,67.0,52.0,-100.00,NNE,13,5.0,15.0,59,0.00,,,0.29,0.000000,,2013-07-10 05:11:00,
2013-07-09 22:22:00,67.0,52.0,-100.00,NNE,13,5.0,15.0,59,0.00,,,0.29,0.000000,,2013-07-10 05:22:00,
2013-07-09 22:32:00,67.0,52.0,-100.00,NNE,13,5.0,15.0,59,0.00,,,0.29,0.000000,,2013-07-10 05:32:00,
2013-07-09 23:01:00,67.0,50.0,-100.00,NW,326,5.0,15.0,54,0.00,,,0.29,0.000000,,2013-07-10 06:01:00,
2013-07-09 23:11:00,67.0,50.0,-100.00,NW,326,5.0,15.0,54,0.00,,,0.29,0.000000,,2013-07-10 06:11:00,
2013-07-09 23:21:00,67.0,50.0,-100.00,NW,326,5.0,15.0,54,0.00,,,0.29,0.000000,,2013-07-10 06:21:00,
2013-07-09 23:32:00,67.0,50.0,-100.00,NW,326,5.0,15.0,54,0.00,,,0.29,0.000000,,2013-07-10 06:32:00,